Time;durP1;ratioP1;P1;durP2;ratioP2;P2;SDS_P1;SDS_P2;PMS_P1;PMS_P2;Temp;Humidity;BMP_temperature;BMP_pressure;BME280_temperature;BME280_humidity;BME280_pressure;Samples;Min_cycle;Max_cycle;Signal;HPM_P1;HPM_P2
2021/10/26 00:02:25;;;;;;;6.40;5.28;;;;;;;;;;5076689;28;20197;-82
2021/10/26 00:04:52;;;;;;;4.75;4.18;;;;;;;;;;5089906;28;20204;-82
2021/10/26 00:07:20;;;;;;;3.65;3.33;;;;;;;;;;5097179;28;20665;-82
2021/10/26 00:09:47;;;;;;;4.78;4.38;;;;;;;;;;5097236;28;20211;-83
2021/10/26 00:12:15;;;;;;;4.57;3.50;;;;;;;;;;5097210;28;20185;-82
2021/10/26 00:14:42;;;;;;;4.15;3.85;;;;;;;;;;5097149;28;20561;-82
2021/10/26 00:17:10;;;;;;;3.50;3.20;;;;;;;;;;5097010;28;20778;-82
2021/10/26 00:19:39;;;;;;;4.13;3.78;;;;;;;;;;5097292;28;20561;-83
2021/10/26 00:22:06;;;;;;;4.07;3.78;;;;;;;;;;5097892;28;20191;-81
2021/10/26 00:24:34;;;;;;;5.22;4.22;;;;;;;;;;5096350;28;20196;-82
2021/10/26 00:27:01;;;;;;;3.83;3.53;;;;;;;;;;5099241;28;20232;-82
2021/10/26 00:29:29;;;;;;;3.00;2.80;;;;;;;;;;5098611;28;20227;-82
2021/10/26 00:31:56;;;;;;;2.75;2.55;;;;;;;;;;5099206;28;20195;-82
2021/10/26 00:34:24;;;;;;;2.90;2.70;;;;;;;;;;5091327;28;20191;-82
2021/10/26 00:36:53;;;;;;;3.95;3.65;;;;;;;;;;5077490;28;20232;-82
2021/10/26 00:39:21;;;;;;;3.92;3.63;;;;;;;;;;5078414;28;20213;-82
2021/10/26 00:41:48;;;;;;;4.53;4.13;;;;;;;;;;5078889;28;20192;-82
2021/10/26 00:44:16;;;;;;;3.85;3.55;;;;;;;;;;5078725;28;20216;-82
2021/10/26 00:46:44;;;;;;;3.40;3.10;;;;;;;;;;5078227;28;20574;-82
2021/10/26 00:49:11;;;;;;;3.13;2.92;;;;;;;;;;5092353;28;20216;-82
2021/10/26 00:51:41;;;;;;;3.17;2.90;;;;;;;;;;5093271;28;20608;-82
2021/10/26 00:54:10;;;;;;;3.28;2.85;;;;;;;;;;5078111;28;20252;-83
2021/10/26 00:56:37;;;;;;;2.95;2.72;;;;;;;;;;5093732;28;20216;-82
2021/10/26 00:59:05;;;;;;;4.18;3.75;;;;;;;;;;5097846;28;20201;-82
2021/10/26 01:01:32;;;;;;;5.07;4.35;;;;;;;;;;5097839;28;20637;-82
2021/10/26 01:04:00;;;;;;;4.40;4.00;;;;;;;;;;5098183;28;20197;-82
2021/10/26 01:06:27;;;;;;;4.85;4.28;;;;;;;;;;5098487;28;20592;-82
2021/10/26 01:08:55;;;;;;;5.40;4.90;;;;;;;;;;5098000;28;20734;-82
2021/10/26 01:11:24;;;;;;;5.63;5.13;;;;;;;;;;5097591;28;20184;-82
2021/10/26 01:13:52;;;;;;;4.15;3.83;;;;;;;;;;5098254;28;20282;-82
2021/10/26 01:16:19;;;;;;;3.38;3.08;;;;;;;;;;5088650;28;20221;-81
2021/10/26 01:18:47;;;;;;;3.40;3.15;;;;;;;;;;5078077;28;20292;-83
2021/10/26 01:21:17;;;;;;;3.63;3.33;;;;;;;;;;5077644;28;20255;-83
2021/10/26 01:23:44;;;;;;;2.80;2.60;;;;;;;;;;5077604;28;20625;-82
2021/10/26 01:26:11;;;;;;;3.28;3.00;;;;;;;;;;5084191;28;20215;-82
2021/10/26 01:28:39;;;;;;;3.10;2.90;;;;;;;;;;5097763;28;20203;-83
2021/10/26 01:31:07;;;;;;;3.17;2.97;;;;;;;;;;5096864;28;20220;-83
2021/10/26 01:33:35;;;;;;;4.97;4.63;;;;;;;;;;5097771;28;20214;-83
2021/10/26 01:36:02;;;;;;;5.32;4.85;;;;;;;;;;5097413;28;20193;-83
2021/10/26 01:38:31;;;;;;;4.43;4.03;;;;;;;;;;5095857;28;20184;-83
2021/10/26 01:40:58;;;;;;;5.28;4.88;;;;;;;;;;5097666;28;20275;-83
2021/10/26 01:43:26;;;;;;;4.55;4.15;;;;;;;;;;5097604;28;20193;-83
2021/10/26 01:45:54;;;;;;;3.88;3.58;;;;;;;;;;5097036;28;20275;-83
2021/10/26 01:48:22;;;;;;;5.55;4.88;;;;;;;;;;5096574;28;20678;-83
2021/10/26 01:50:49;;;;;;;8.63;7.00;;;;;;;;;;5081976;28;20755;-83
2021/10/26 01:53:17;;;;;;;6.60;5.85;;;;;;;;;;5077488;28;20192;-82
2021/10/26 01:55:46;;;;;;;4.60;4.15;;;;;;;;;;5077105;28;20197;-83
2021/10/26 01:58:15;;;;;;;3.70;3.40;;;;;;;;;;5077459;28;20231;-83
2021/10/26 02:00:43;;;;;;;5.13;4.72;;;;;;;;;;5078667;28;20181;-82
2021/10/26 02:03:10;;;;;;;5.07;4.57;;;;;;;;;;5077876;28;20185;-83
2021/10/26 02:05:38;;;;;;;5.35;4.85;;;;;;;;;;5077955;28;20201;-83
2021/10/26 02:08:06;;;;;;;3.80;3.50;;;;;;;;;;5077472;28;20223;-83
2021/10/26 02:10:33;;;;;;;5.07;4.60;;;;;;;;;;5077104;28;20215;-83
2021/10/26 02:13:02;;;;;;;5.88;5.07;;;;;;;;;;5077371;28;20209;-83
2021/10/26 02:15:29;;;;;;;5.43;4.93;;;;;;;;;;5092739;28;20227;-83
2021/10/26 02:17:57;;;;;;;5.28;4.75;;;;;;;;;;5097784;28;20216;-83
2021/10/26 02:20:24;;;;;;;4.30;3.90;;;;;;;;;;5095589;28;20211;-82
2021/10/26 02:22:52;;;;;;;5.15;4.75;;;;;;;;;;5097412;28;20212;-83
2021/10/26 02:25:19;;;;;;;5.05;4.65;;;;;;;;;;5097587;28;20187;-82
2021/10/26 02:27:47;;;;;;;6.68;6.05;;;;;;;;;;5096457;28;20231;-83
2021/10/26 02:30:16;;;;;;;5.30;4.80;;;;;;;;;;5084981;28;20223;-82
2021/10/26 02:32:43;;;;;;;6.20;5.60;;;;;;;;;;5076798;28;20211;-82
2021/10/26 02:35:12;;;;;;;6.80;5.45;;;;;;;;;;5076674;28;20211;-82
2021/10/26 02:37:39;;;;;;;9.23;7.88;;;;;;;;;;5076578;28;20217;-82
2021/10/26 02:40:08;;;;;;;7.25;6.65;;;;;;;;;;5077686;28;20197;-82
2021/10/26 02:42:36;;;;;;;5.20;4.80;;;;;;;;;;5077240;28;20238;-83
2021/10/26 02:45:07;;;;;;;6.68;6.05;;;;;;;;;;5076950;28;20235;-83
2021/10/26 02:47:37;;;;;;;4.45;4.05;;;;;;;;;;5076750;28;20216;-83
2021/10/26 02:50:05;;;;;;;6.88;6.22;;;;;;;;;;5075762;28;20315;-82
2021/10/26 02:52:33;;;;;;;7.07;6.45;;;;;;;;;;5087007;28;20188;-82
2021/10/26 02:55:01;;;;;;;5.78;5.28;;;;;;;;;;5088809;28;20212;-82
2021/10/26 02:57:28;;;;;;;5.30;4.80;;;;;;;;;;5085580;28;20221;-83
2021/10/26 02:59:56;;;;;;;5.63;5.03;;;;;;;;;;5082708;28;20215;-82
2021/10/26 03:02:23;;;;;;;6.03;5.53;;;;;;;;;;5090720;28;20193;-82
2021/10/26 03:04:52;;;;;;;4.57;4.18;;;;;;;;;;5089741;28;20196;-82
2021/10/26 03:07:20;;;;;;;5.75;5.00;;;;;;;;;;5099250;28;20271;-82
2021/10/26 03:09:47;;;;;;;4.70;4.30;;;;;;;;;;5109363;28;20211;-82
2021/10/26 03:12:16;;;;;;;4.43;3.97;;;;;;;;;;5106508;28;20230;-82
2021/10/26 03:14:43;;;;;;;3.28;2.97;;;;;;;;;;5094602;28;20200;-83
2021/10/26 03:17:10;;;;;;;6.22;5.60;;;;;;;;;;5075588;28;20757;-83
2021/10/26 03:19:39;;;;;;;5.22;4.65;;;;;;;;;;5057611;28;20288;-83
2021/10/26 03:22:08;;;;;;;4.72;4.32;;;;;;;;;;5075482;28;20188;-83
2021/10/26 03:24:35;;;;;;;5.05;4.55;;;;;;;;;;5075373;28;20189;-83
2021/10/26 03:27:03;;;;;;;5.03;4.63;;;;;;;;;;5094511;22;20235;-84
2021/10/26 03:29:30;;;;;;;4.30;3.90;;;;;;;;;;5094097;28;20667;-85
2021/10/26 03:31:59;;;;;;;4.85;4.38;;;;;;;;;;5093012;28;20224;-85
2021/10/26 03:34:26;;;;;;;6.70;6.03;;;;;;;;;;5093773;28;20198;-87
2021/10/26 03:36:53;;;;;;;5.55;5.05;;;;;;;;;;5097128;28;20219;-85
2021/10/26 03:39:22;;;;;;;6.63;5.25;;;;;;;;;;5099634;28;20204;-85
2021/10/26 03:41:50;;;;;;;5.57;4.80;;;;;;;;;;5094573;28;20185;-85
2021/10/26 03:44:17;;;;;;;6.90;5.78;;;;;;;;;;5093770;28;20667;-85
2021/10/26 03:46:45;;;;;;;5.63;5.13;;;;;;;;;;5094194;28;20231;-86
2021/10/26 03:49:12;;;;;;;6.25;5.65;;;;;;;;;;5113657;28;20184;-86
2021/10/26 03:51:40;;;;;;;5.15;4.65;;;;;;;;;;5113886;28;20230;-85
2021/10/26 03:54:07;;;;;;;4.20;3.80;;;;;;;;;;5114424;28;20180;-84
2021/10/26 03:56:36;;;;;;;3.97;3.58;;;;;;;;;;5115449;28;20200;-85
2021/10/26 03:59:05;;;;;;;3.97;3.60;;;;;;;;;;5114090;28;20242;-84
2021/10/26 04:01:33;;;;;;;2.90;2.70;;;;;;;;;;5109332;28;20225;-86
2021/10/26 04:04:01;;;;;;;3.10;2.80;;;;;;;;;;5109453;28;20191;-84
2021/10/26 04:06:30;;;;;;;3.55;3.25;;;;;;;;;;5110710;28;20203;-84
2021/10/26 04:09:00;;;;;;;4.20;2.90;;;;;;;;;;5113028;28;20843;-86
2021/10/26 04:11:28;;;;;;;2.92;2.70;;;;;;;;;;5115699;28;20709;-86
2021/10/26 04:13:58;;;;;;;2.65;2.45;;;;;;;;;;5096330;28;20196;-84
2021/10/26 04:16:25;;;;;;;4.50;4.20;;;;;;;;;;5095883;28;20192;-85
2021/10/26 04:18:52;;;;;;;7.78;6.35;;;;;;;;;;5095895;28;20236;-86
2021/10/26 04:21:20;;;;;;;7.90;7.10;;;;;;;;;;5096883;28;20189;-84
2021/10/26 04:23:50;;;;;;;6.90;6.20;;;;;;;;;;5113996;28;20199;-84
2021/10/26 04:26:18;;;;;;;8.23;7.15;;;;;;;;;;5114837;28;20286;-84
2021/10/26 04:28:46;;;;;;;4.82;4.43;;;;;;;;;;5113910;28;20231;-85
2021/10/26 04:31:15;;;;;;;3.63;3.33;;;;;;;;;;5115225;28;20208;-84
2021/10/26 04:33:43;;;;;;;5.03;4.50;;;;;;;;;;5115943;28;20209;-83
2021/10/26 04:36:11;;;;;;;4.93;4.40;;;;;;;;;;5115961;28;20233;-83
2021/10/26 04:38:38;;;;;;;3.42;3.13;;;;;;;;;;5115077;28;20216;-84
2021/10/26 04:41:07;;;;;;;3.95;3.55;;;;;;;;;;5114672;28;20191;-85
2021/10/26 04:43:35;;;;;;;3.35;3.05;;;;;;;;;;5115031;28;20199;-83
2021/10/26 04:46:03;;;;;;;3.33;3.03;;;;;;;;;;5114839;28;20635;-83
2021/10/26 04:48:32;;;;;;;5.03;4.53;;;;;;;;;;5114276;28;20231;-84
2021/10/26 04:50:59;;;;;;;5.65;5.25;;;;;;;;;;5114287;28;20200;-83
2021/10/26 04:53:27;;;;;;;6.40;5.80;;;;;;;;;;5115006;28;20561;-83
2021/10/26 04:55:54;;;;;;;8.75;7.10;;;;;;;;;;5114224;28;20180;-84
2021/10/26 04:58:22;;;;;;;5.28;4.88;;;;;;;;;;5114557;28;20219;-84
2021/10/26 05:00:49;;;;;;;7.32;5.70;;;;;;;;;;5115195;28;20203;-83
2021/10/26 05:03:17;;;;;;;5.50;4.97;;;;;;;;;;5114752;28;20222;-85
2021/10/26 05:05:45;;;;;;;7.43;6.72;;;;;;;;;;5114433;28;20184;-86
2021/10/26 05:08:13;;;;;;;6.05;5.47;;;;;;;;;;5113894;28;20211;-83
2021/10/26 05:10:40;;;;;;;5.78;5.28;;;;;;;;;;5114575;28;20184;-85
2021/10/26 05:13:08;;;;;;;5.63;5.13;;;;;;;;;;5114122;28;20207;-85
2021/10/26 05:15:36;;;;;;;6.85;5.63;;;;;;;;;;5114080;28;20568;-83
2021/10/26 05:18:03;;;;;;;4.82;4.43;;;;;;;;;;5113604;28;20579;-84
2021/10/26 05:20:32;;;;;;;8.10;6.95;;;;;;;;;;5114213;28;20233;-84
2021/10/26 05:23:03;;;;;;;8.52;6.97;;;;;;;;;;5114109;28;20202;-83
2021/10/26 05:25:30;;;;;;;9.05;7.82;;;;;;;;;;5113627;28;20204;-83
2021/10/26 05:27:57;;;;;;;8.48;7.70;;;;;;;;;;5113480;28;20241;-85
2021/10/26 05:30:25;;;;;;;7.97;7.25;;;;;;;;;;5114050;28;20188;-85
2021/10/26 05:32:53;;;;;;;6.53;5.88;;;;;;;;;;5113611;28;20215;-83
2021/10/26 05:35:20;;;;;;;6.82;6.22;;;;;;;;;;5114237;28;20199;-84
2021/10/26 05:37:48;;;;;;;6.78;6.18;;;;;;;;;;5114501;28;20212;-85
2021/10/26 05:40:16;;;;;;;6.07;5.53;;;;;;;;;;5114383;28;20183;-84
2021/10/26 05:42:44;;;;;;;4.63;4.22;;;;;;;;;;5104427;28;20192;-85
2021/10/26 05:45:11;;;;;;;7.45;6.63;;;;;;;;;;5095407;28;20204;-84
2021/10/26 05:47:39;;;;;;;10.45;8.48;;;;;;;;;;5092842;28;20235;-83
2021/10/26 05:50:08;;;;;;;7.00;6.25;;;;;;;;;;5093458;28;20191;-84
2021/10/26 05:52:35;;;;;;;5.72;4.82;;;;;;;;;;5092954;28;20220;-86
2021/10/26 05:55:03;;;;;;;6.32;5.82;;;;;;;;;;5092609;28;20197;-84
2021/10/26 05:57:32;;;;;;;7.95;7.18;;;;;;;;;;5092471;28;20228;-83
2021/10/26 06:00:00;;;;;;;6.93;6.32;;;;;;;;;;5093704;28;20188;-86
2021/10/26 06:02:27;;;;;;;6.57;5.93;;;;;;;;;;5092930;28;20185;-84
2021/10/26 06:04:55;;;;;;;7.78;7.07;;;;;;;;;;5092191;28;20187;-83
2021/10/26 06:07:22;;;;;;;7.38;6.57;;;;;;;;;;5092557;28;20230;-85
2021/10/26 06:09:50;;;;;;;6.55;5.60;;;;;;;;;;5092079;28;20181;-83
2021/10/26 06:12:21;;;;;;;4.53;4.13;;;;;;;;;;5092610;28;20208;-86
2021/10/26 06:14:50;;;;;;;6.20;5.60;;;;;;;;;;5093043;28;20193;-84
2021/10/26 06:17:18;;;;;;;4.40;4.00;;;;;;;;;;5104327;28;20219;-87
2021/10/26 06:19:45;;;;;;;3.85;3.53;;;;;;;;;;5113498;28;20210;-86
2021/10/26 06:22:13;;;;;;;3.63;3.33;;;;;;;;;;5113144;28;20192;-86
2021/10/26 06:24:42;;;;;;;4.25;3.85;;;;;;;;;;5107498;28;20208;-86
2021/10/26 06:27:09;;;;;;;4.30;4.00;;;;;;;;;;5093832;28;20267;-85
2021/10/26 06:29:37;;;;;;;5.20;3.60;;;;;;;;;;5092096;28;20204;-86
2021/10/26 06:32:07;;;;;;;3.20;3.00;;;;;;;;;;5092241;28;20196;-87
2021/10/26 06:34:34;;;;;;;3.00;2.80;;;;;;;;;;5091684;28;20206;-84
2021/10/26 06:37:02;;;;;;;2.95;2.75;;;;;;;;;;5092048;28;20223;-85
2021/10/26 06:39:30;;;;;;;3.05;2.72;;;;;;;;;;5092853;28;20227;-85
2021/10/26 06:41:57;;;;;;;4.75;4.28;;;;;;;;;;5093498;28;20200;-86
2021/10/26 06:44:25;;;;;;;3.78;3.00;;;;;;;;;;5093220;28;20196;-84
2021/10/26 06:46:52;;;;;;;3.65;3.35;;;;;;;;;;5093274;28;20231;-84
2021/10/26 06:49:21;;;;;;;4.85;4.15;;;;;;;;;;5094048;28;21008;-83
2021/10/26 06:51:49;;;;;;;4.20;3.90;;;;;;;;;;5094282;28;20200;-84
2021/10/26 06:54:16;;;;;;;5.18;4.50;;;;;;;;;;5093921;28;20215;-86
2021/10/26 06:56:44;;;;;;;4.07;3.67;;;;;;;;;;5094595;28;20208;-85
2021/10/26 06:59:11;;;;;;;6.25;3.35;;;;;;;;;;5094395;28;20187;-86
2021/10/26 07:01:38;;;;;;;4.18;3.80;;;;;;;;;;5093932;28;20211;-86
2021/10/26 07:04:06;;;;;;;3.15;2.85;;;;;;;;;;5093691;28;20207;-87
2021/10/26 07:06:35;;;;;;;3.53;3.28;;;;;;;;;;5094248;28;20290;-85
2021/10/26 07:09:02;;;;;;;3.00;2.70;;;;;;;;;;5092749;28;20204;-85
2021/10/26 07:11:30;;;;;;;2.97;2.72;;;;;;;;;;5093595;28;20299;-88
2021/10/26 07:13:58;;;;;;;2.40;2.20;;;;;;;;;;5093750;28;20584;-86
2021/10/26 07:16:25;;;;;;;3.10;2.85;;;;;;;;;;5093353;28;20200;-87
2021/10/26 07:18:53;;;;;;;2.30;2.10;;;;;;;;;;5091768;28;20204;-86
2021/10/26 07:21:20;;;;;;;2.90;2.55;;;;;;;;;;5095482;28;20196;-87
2021/10/26 07:23:49;;;;;;;3.33;3.03;;;;;;;;;;5092545;28;20184;-86
2021/10/26 07:26:17;;;;;;;3.80;3.50;;;;;;;;;;5092526;28;20546;-84
2021/10/26 07:28:44;;;;;;;4.10;3.70;;;;;;;;;;5091747;28;20232;-87
2021/10/26 07:31:12;;;;;;;3.67;3.38;;;;;;;;;;5093217;28;20191;-87
2021/10/26 07:33:40;;;;;;;3.20;3.00;;;;;;;;;;5093246;28;20211;-85
2021/10/26 07:36:10;;;;;;;2.33;2.17;;;;;;;;;;5091574;28;20185;-87
2021/10/26 07:38:40;;;;;;;2.53;2.33;;;;;;;;;;5104507;28;20216;-87
2021/10/26 07:41:09;;;;;;;3.33;2.72;;;;;;;;;;5111663;28;20223;-85
2021/10/26 07:44:01;;;;;;;3.10;2.90;;;;;;;;;;5113150;28;20210;-87
2021/10/26 07:46:28;;;;;;;2.53;2.30;;;;;;;;;;5117767;27;20208;-86
2021/10/26 07:48:56;;;;;;;3.15;2.88;;;;;;;;;;5118722;28;20180;-85
2021/10/26 07:51:26;;;;;;;3.05;2.75;;;;;;;;;;5118258;28;20188;-89
2021/10/26 07:53:53;;;;;;;3.13;2.80;;;;;;;;;;5108705;28;20212;-85
2021/10/26 07:56:23;;;;;;;4.32;3.40;;;;;;;;;;5120361;28;20188;-86
2021/10/26 07:58:51;;;;;;;2.92;2.72;;;;;;;;;;5117810;28;20179;-87
2021/10/26 08:01:18;;;;;;;3.20;2.90;;;;;;;;;;5117805;28;20663;-88
2021/10/26 08:03:46;;;;;;;4.38;3.25;;;;;;;;;;5119301;28;20188;-85
2021/10/26 08:06:13;;;;;;;3.17;2.88;;;;;;;;;;5120533;28;20234;-86
2021/10/26 08:08:41;;;;;;;2.80;2.60;;;;;;;;;;5121554;28;20231;-85
2021/10/26 08:11:09;;;;;;;3.92;2.30;;;;;;;;;;5122031;28;20208;-87
2021/10/26 08:13:38;;;;;;;2.72;2.53;;;;;;;;;;5119035;28;20773;-86
2021/10/26 08:16:05;;;;;;;2.55;2.22;;;;;;;;;;5116730;28;20210;-85
2021/10/26 08:18:33;;;;;;;2.30;2.10;;;;;;;;;;5115812;28;20219;-85
2021/10/26 08:21:01;;;;;;;2.72;2.53;;;;;;;;;;5116992;28;20590;-85
2021/10/26 08:23:28;;;;;;;2.80;2.60;;;;;;;;;;5116477;28;20191;-85
2021/10/26 08:25:59;;;;;;;2.80;2.60;;;;;;;;;;5116520;28;20184;-83
2021/10/26 08:28:27;;;;;;;2.75;2.53;;;;;;;;;;5116775;28;20239;-85
2021/10/26 08:31:01;;;;;;;3.28;2.67;;;;;;;;;;5116612;28;20233;-85
2021/10/26 08:33:40;;;;;;;4.20;3.08;;;;;;;;;;5116169;28;20219;-84
2021/10/26 08:36:07;;;;;;;2.95;2.75;;;;;;;;;;5116150;28;20647;-84
2021/10/26 08:38:35;;;;;;;3.75;3.33;;;;;;;;;;5116148;28;20222;-84
2021/10/26 08:41:06;;;;;;;2.90;2.65;;;;;;;;;;5116207;28;20182;-85
2021/10/26 08:43:34;;;;;;;3.00;2.70;;;;;;;;;;5116456;28;20267;-86
2021/10/26 08:46:08;;;;;;;3.25;2.92;;;;;;;;;;5116542;28;20188;-85
2021/10/26 08:48:40;;;;;;;2.05;1.95;;;;;;;;;;5115728;28;20306;-85
2021/10/26 08:51:08;;;;;;;2.95;2.75;;;;;;;;;;5116001;28;20229;-85
2021/10/26 08:53:35;;;;;;;3.08;2.40;;;;;;;;;;5114400;28;20199;-83
2021/10/26 08:56:04;;;;;;;2.80;2.60;;;;;;;;;;5095597;28;20191;-83
2021/10/26 08:58:34;;;;;;;2.83;2.63;;;;;;;;;;5095782;28;20269;-84
2021/10/26 09:01:04;;;;;;;2.28;2.08;;;;;;;;;;5096081;28;20173;-85
2021/10/26 09:03:35;;;;;;;3.00;2.80;;;;;;;;;;5096499;28;20187;-83
2021/10/26 09:06:04;;;;;;;2.33;2.05;;;;;;;;;;5095673;28;20223;-87
2021/10/26 09:08:31;;;;;;;2.85;2.65;;;;;;;;;;5095199;28;20212;-86
2021/10/26 09:11:16;;;;;;;3.00;2.42;;;;;;;;;;5093832;28;20188;-86
2021/10/26 09:16:41;;;;;;;3.45;2.42;;;;;;;;;;5093967;28;20202;-87
2021/10/26 09:19:11;;;;;;;3.28;2.97;;;;;;;;;;5094057;28;20207;-87
2021/10/26 09:21:40;;;;;;;3.08;2.33;;;;;;;;;;5094097;28;20200;-87
2021/10/26 09:24:10;;;;;;;2.45;2.20;;;;;;;;;;5093739;28;20203;-87
2021/10/26 09:26:50;;;;;;;2.85;2.55;;;;;;;;;;5093570;28;20825;-87
2021/10/26 09:29:22;;;;;;;2.35;2.15;;;;;;;;;;5095223;28;20203;-87
2021/10/26 09:31:51;;;;;;;2.63;2.42;;;;;;;;;;5095131;28;20204;-86
2021/10/26 09:34:20;;;;;;;2.47;2.28;;;;;;;;;;5095622;28;20224;-87
2021/10/26 09:36:52;;;;;;;2.42;2.33;;;;;;;;;;5074946;28;20308;-88
2021/10/26 09:39:24;;;;;;;2.53;2.33;;;;;;;;;;5074440;28;20660;-87
2021/10/26 09:42:07;;;;;;;2.28;2.08;;;;;;;;;;5074561;28;20197;-87
2021/10/26 09:44:38;;;;;;;2.78;2.10;;;;;;;;;;5074272;28;20232;-87
2021/10/26 09:47:11;;;;;;;2.63;2.42;;;;;;;;;;5074769;28;20221;-85
2021/10/26 09:49:42;;;;;;;2.30;2.10;;;;;;;;;;5075628;28;20208;-86
2021/10/26 09:52:19;;;;;;;4.05;3.30;;;;;;;;;;5074238;28;20209;-87
2021/10/26 09:54:50;;;;;;;2.90;2.70;;;;;;;;;;5074149;28;20221;-87
2021/10/26 09:57:20;;;;;;;2.35;2.15;;;;;;;;;;5074276;28;20229;-87
2021/10/26 09:59:50;;;;;;;1.92;1.83;;;;;;;;;;5073988;28;20204;-87
2021/10/26 10:02:22;;;;;;;2.95;2.75;;;;;;;;;;5073658;28;20671;-87
2021/10/26 10:04:51;;;;;;;2.50;2.30;;;;;;;;;;5073840;28;20197;-87
2021/10/26 10:07:32;;;;;;;2.45;2.25;;;;;;;;;;5074468;28;20225;-86
2021/10/26 10:10:01;;;;;;;2.05;1.95;;;;;;;;;;5073985;28;20570;-85
2021/10/26 10:12:29;;;;;;;2.50;2.35;;;;;;;;;;5074709;28;20570;-86
2021/10/26 10:14:57;;;;;;;2.15;2.03;;;;;;;;;;5075456;28;20220;-86
2021/10/26 10:17:28;;;;;;;3.88;2.17;;;;;;;;;;5075524;28;20231;-86
2021/10/26 10:19:56;;;;;;;2.65;2.45;;;;;;;;;;5074492;28;20238;-88
2021/10/26 10:22:29;;;;;;;3.08;1.90;;;;;;;;;;5074260;28;20201;-86
2021/10/26 10:24:59;;;;;;;2.30;2.10;;;;;;;;;;5074325;28;20205;-87
2021/10/26 10:27:32;;;;;;;1.85;1.75;;;;;;;;;;5074765;28;20236;-86
2021/10/26 10:30:00;;;;;;;2.53;2.33;;;;;;;;;;5076263;28;20201;-87
2021/10/26 10:32:31;;;;;;;2.00;1.90;;;;;;;;;;5074814;28;20590;-86
2021/10/26 10:35:01;;;;;;;2.28;2.08;;;;;;;;;;5074054;28;20221;-87
2021/10/26 10:37:30;;;;;;;1.40;1.30;;;;;;;;;;5073164;28;20220;-86
2021/10/26 10:39:58;;;;;;;2.30;2.13;;;;;;;;;;5072960;28;20573;-87
2021/10/26 10:42:29;;;;;;;2.13;1.73;;;;;;;;;;5072728;28;20291;-86
2021/10/26 10:45:00;;;;;;;1.75;1.65;;;;;;;;;;5074412;28;20656;-86
2021/10/26 10:47:42;;;;;;;2.13;1.90;;;;;;;;;;5076437;28;20221;-90
2021/10/26 10:50:41;;;;;;;1.90;1.80;;;;;;;;;;5072826;28;20189;-88
2021/10/26 10:53:19;;;;;;;2.65;2.33;;;;;;;;;;5030954;28;20202;-88
2021/10/26 10:55:50;;;;;;;2.00;1.90;;;;;;;;;;5066122;28;20230;-88
2021/10/26 10:58:30;;;;;;;1.63;1.52;;;;;;;;;;5072458;28;20223;-87
2021/10/26 11:01:34;;;;;;;2.03;1.92;;;;;;;;;;5072560;28;20701;-87
2021/10/26 11:04:38;;;;;;;2.75;1.95;;;;;;;;;;5072351;28;20200;-88
2021/10/26 11:07:06;;;;;;;1.70;1.60;;;;;;;;;;5072158;28;20259;-88
2021/10/26 11:09:43;;;;;;;1.42;1.33;;;;;;;;;;5072419;28;20196;-88
2021/10/26 11:12:21;;;;;;;1.88;1.73;;;;;;;;;;5072496;28;20181;-88
2021/10/26 11:14:55;;;;;;;1.60;1.50;;;;;;;;;;5071423;28;20292;-88
2021/10/26 11:17:54;;;;;;;1.60;1.50;;;;;;;;;;5072239;28;20223;-89
2021/10/26 11:20:52;;;;;;;1.73;1.63;;;;;;;;;;5071965;28;20201;-88
2021/10/26 11:23:45;;;;;;;1.40;1.35;;;;;;;;;;5072506;28;20236;-87
2021/10/26 11:26:18;;;;;;;1.55;1.45;;;;;;;;;;5072972;28;20457;-87
2021/10/26 11:29:00;;;;;;;1.40;1.30;;;;;;;;;;5072241;28;20332;-88
2021/10/26 11:31:32;;;;;;;2.63;2.10;;;;;;;;;;5071956;28;20204;-88
2021/10/26 11:34:10;;;;;;;1.55;1.45;;;;;;;;;;5072239;28;20193;-88
2021/10/26 11:36:40;;;;;;;1.83;1.70;;;;;;;;;;5071058;28;20220;-89
2021/10/26 11:39:13;;;;;;;1.27;1.17;;;;;;;;;;5072229;28;20185;-88
2021/10/26 11:41:43;;;;;;;1.48;1.25;;;;;;;;;;5072079;28;20216;-88
2021/10/26 11:44:13;;;;;;;1.60;1.50;;;;;;;;;;5072022;28;20177;-88
2021/10/26 11:46:42;;;;;;;1.40;1.30;;;;;;;;;;5071651;28;20204;-88
2021/10/26 11:49:17;;;;;;;2.63;1.58;;;;;;;;;;5072126;28;20199;-88
2021/10/26 11:51:50;;;;;;;1.60;1.50;;;;;;;;;;5072163;28;20295;-88
2021/10/26 11:54:19;;;;;;;2.47;1.60;;;;;;;;;;5072385;28;20198;-87
2021/10/26 11:56:49;;;;;;;1.80;1.70;;;;;;;;;;5072021;28;20263;-88
2021/10/26 11:59:19;;;;;;;1.45;1.35;;;;;;;;;;5071855;28;20351;-88
2021/10/26 12:01:53;;;;;;;1.63;1.40;;;;;;;;;;5071816;28;20201;-88
2021/10/26 12:04:30;;;;;;;1.60;1.50;;;;;;;;;;5072380;28;20197;-89
2021/10/26 12:07:01;;;;;;;2.10;1.90;;;;;;;;;;5073187;28;20220;-90
2021/10/26 12:09:31;;;;;;;1.50;1.40;;;;;;;;;;5071449;28;20197;-89
2021/10/26 12:12:08;;;;;;;5.80;1.63;;;;;;;;;;5071863;28;20687;-88
2021/10/26 12:14:38;;;;;;;3.55;1.60;;;;;;;;;;5072293;28;20204;-88
2021/10/26 12:17:20;;;;;;;1.92;1.77;;;;;;;;;;5071463;28;20232;-89
2021/10/26 12:19:57;;;;;;;1.48;1.38;;;;;;;;;;5073829;28;20205;-89
2021/10/26 12:22:30;;;;;;;1.45;1.35;;;;;;;;;;5075422;28;20217;-88
2021/10/26 12:25:12;;;;;;;1.88;1.77;;;;;;;;;;5073197;28;20388;-88
2021/10/26 12:27:42;;;;;;;1.70;1.60;;;;;;;;;;5071077;28;20228;-88
2021/10/26 12:30:25;;;;;;;1.48;1.38;;;;;;;;;;5071627;28;20219;-89
2021/10/26 12:32:59;;;;;;;1.75;1.65;;;;;;;;;;5074313;28;20236;-88
2021/10/26 12:35:29;;;;;;;1.20;1.10;;;;;;;;;;5076465;28;20208;-88
2021/10/26 12:38:27;;;;;;;0.85;0.85;;;;;;;;;;5077171;28;20270;-88
2021/10/26 12:40:58;;;;;;;1.67;1.58;;;;;;;;;;5068292;28;20295;-90
2021/10/26 12:43:27;;;;;;;1.23;1.20;;;;;;;;;;5076411;28;20288;-88
2021/10/26 12:46:00;;;;;;;1.10;1.00;;;;;;;;;;5075011;28;20258;-89
2021/10/26 12:48:34;;;;;;;1.40;1.30;;;;;;;;;;5077793;28;20217;-89
2021/10/26 12:51:03;;;;;;;1.60;1.42;;;;;;;;;;5076704;28;20288;-88
2021/10/26 12:53:35;;;;;;;1.10;1.00;;;;;;;;;;5074794;28;20189;-89
2021/10/26 12:56:16;;;;;;;1.92;1.23;;;;;;;;;;5075027;28;20225;-88
2021/10/26 12:58:46;;;;;;;2.42;1.50;;;;;;;;;;5074615;28;20220;-89
2021/10/26 13:01:29;;;;;;;2.45;1.42;;;;;;;;;;5075022;28;20624;-89
2021/10/26 13:04:07;;;;;;;1.20;1.20;;;;;;;;;;5074791;28;20226;-91
2021/10/26 13:06:40;;;;;;;1.00;0.90;;;;;;;;;;5074733;28;20203;-88
2021/10/26 13:09:21;;;;;;;1.02;1.00;;;;;;;;;;5074593;28;20217;-89
2021/10/26 13:11:49;;;;;;;1.10;0.90;;;;;;;;;;5074163;28;20201;-88
2021/10/26 13:14:17;;;;;;;0.80;0.80;;;;;;;;;;5074229;28;20179;-89
2021/10/26 13:16:47;;;;;;;1.95;1.00;;;;;;;;;;5074181;28;20239;-89
2021/10/26 13:19:18;;;;;;;0.80;0.80;;;;;;;;;;5074293;28;20272;-89
2021/10/26 13:21:47;;;;;;;1.10;1.00;;;;;;;;;;5074026;28;20565;-89
2021/10/26 13:24:17;;;;;;;1.10;1.02;;;;;;;;;;5074224;28;20223;-88
2021/10/26 13:26:45;;;;;;;0.95;0.95;;;;;;;;;;5073564;28;20204;-88
2021/10/26 13:29:14;;;;;;;0.70;0.70;;;;;;;;;;5074112;28;20204;-88
2021/10/26 13:31:41;;;;;;;1.25;1.13;;;;;;;;;;5073681;28;20197;-88
2021/10/26 13:34:10;;;;;;;1.17;1.08;;;;;;;;;;5073846;28;20197;-90
2021/10/26 13:36:39;;;;;;;0.77;0.77;;;;;;;;;;5073556;28;20307;-88
2021/10/26 13:39:09;;;;;;;1.95;0.80;;;;;;;;;;5073610;28;20211;-88
2021/10/26 13:41:45;;;;;;;1.15;0.70;;;;;;;;;;5074627;28;20284;-88
2021/10/26 13:44:13;;;;;;;0.90;0.90;;;;;;;;;;5074434;28;20223;-88
2021/10/26 13:46:41;;;;;;;0.70;0.70;;;;;;;;;;5074878;28;20193;-88
2021/10/26 13:49:10;;;;;;;0.70;0.70;;;;;;;;;;5074885;28;20201;-88
2021/10/26 13:51:38;;;;;;;0.60;0.60;;;;;;;;;;5074244;28;20325;-88
2021/10/26 13:54:07;;;;;;;0.68;0.68;;;;;;;;;;5074114;28;20204;-87
2021/10/26 13:56:34;;;;;;;0.98;0.90;;;;;;;;;;5074309;28;20225;-89
2021/10/26 13:59:05;;;;;;;0.60;0.60;;;;;;;;;;5074354;28;20205;-88
2021/10/26 14:01:34;;;;;;;1.77;1.05;;;;;;;;;;5074354;28;20280;-89
2021/10/26 14:04:02;;;;;;;0.73;0.73;;;;;;;;;;5074120;28;20215;-88
2021/10/26 14:06:29;;;;;;;0.80;0.80;;;;;;;;;;5073711;28;20200;-88
2021/10/26 14:08:58;;;;;;;2.55;0.95;;;;;;;;;;5074423;28;20212;-89
2021/10/26 14:11:26;;;;;;;0.80;0.80;;;;;;;;;;5074131;28;20239;-88
2021/10/26 14:13:53;;;;;;;0.77;0.77;;;;;;;;;;5073978;28;20239;-88
2021/10/26 14:16:23;;;;;;;0.70;0.70;;;;;;;;;;5073592;28;20204;-88
2021/10/26 14:18:52;;;;;;;0.80;0.80;;;;;;;;;;5073164;28;20297;-88
2021/10/26 14:21:20;;;;;;;1.30;1.20;;;;;;;;;;5073400;28;20747;-88
2021/10/26 14:23:47;;;;;;;2.92;1.20;;;;;;;;;;5073448;28;20192;-89
2021/10/26 14:26:15;;;;;;;0.70;0.70;;;;;;;;;;5073293;28;20284;-88
2021/10/26 14:28:42;;;;;;;1.00;0.73;;;;;;;;;;5073032;28;20315;-88
2021/10/26 14:31:15;;;;;;;0.60;0.60;;;;;;;;;;5073375;28;20680;-88
2021/10/26 14:33:44;;;;;;;1.10;0.50;;;;;;;;;;5073986;28;20209;-88
2021/10/26 14:36:17;;;;;;;1.00;0.90;;;;;;;;;;5073445;28;20199;-88
2021/10/26 14:38:53;;;;;;;1.58;0.80;;;;;;;;;;5073295;28;20225;-88
2021/10/26 14:55:13;;;;;;;0.55;0.55;;;;;;;;;;5073722;28;20250;-88
2021/10/26 14:57:41;;;;;;;0.55;0.55;;;;;;;;;;5074686;28;20274;-88
2021/10/26 15:00:10;;;;;;;0.43;0.43;;;;;;;;;;5074338;28;20567;-88
2021/10/26 15:02:38;;;;;;;0.55;0.55;;;;;;;;;;5073905;28;20292;-89
2021/10/26 15:05:09;;;;;;;0.63;0.63;;;;;;;;;;5073425;28;20197;-89
2021/10/26 15:07:36;;;;;;;0.70;0.70;;;;;;;;;;5073162;28;20595;-89
2021/10/26 15:10:08;;;;;;;0.65;0.65;;;;;;;;;;5073508;28;20288;-89
2021/10/26 15:12:39;;;;;;;0.50;0.50;;;;;;;;;;5074030;28;20203;-88
2021/10/26 15:15:09;;;;;;;1.85;0.85;;;;;;;;;;5072950;28;20228;-88
2021/10/26 15:17:38;;;;;;;1.80;0.88;;;;;;;;;;5073501;28;20284;-88